createdAt,value
2023-04-18T00:01:20.512Z,17.62
2023-04-18T00:03:47.282Z,17.62
2023-04-18T00:06:13.957Z,17.59
2023-04-18T00:08:41.852Z,17.59
2023-04-18T00:11:08.502Z,17.59
2023-04-18T00:13:34.951Z,17.59
2023-04-18T00:16:01.412Z,17.59
2023-04-18T00:18:27.957Z,17.58
2023-04-18T00:20:54.616Z,17.59
2023-04-18T00:23:21.126Z,17.58
2023-04-18T00:25:48.940Z,17.58
2023-04-18T00:28:15.560Z,17.57
2023-04-18T00:30:42.052Z,17.57
2023-04-18T00:33:08.544Z,17.56
2023-04-18T00:35:35.026Z,17.54
2023-04-18T00:38:01.449Z,17.55
2023-04-18T00:40:27.959Z,17.55
2023-04-18T00:42:55.860Z,17.54
2023-04-18T00:45:22.347Z,17.54
2023-04-18T00:47:48.896Z,17.54
2023-04-18T00:50:15.898Z,17.53
2023-04-18T00:52:44.334Z,17.52
2023-04-18T00:55:10.911Z,17.53
2023-04-18T00:57:37.409Z,17.52
2023-04-18T01:00:07.207Z,17.52
2023-04-18T01:02:33.921Z,17.51
2023-04-18T01:05:00.478Z,17.52
2023-04-18T01:07:27.209Z,17.50
2023-04-18T01:09:54.121Z,17.50
2023-04-18T01:12:20.570Z,17.50
2023-04-18T01:14:47.127Z,17.50
2023-04-18T01:17:14.948Z,17.50
2023-04-18T01:19:41.578Z,17.50
2023-04-18T01:22:08.740Z,17.48
2023-04-18T01:24:36.570Z,17.49
2023-04-18T01:27:03.162Z,17.47
2023-04-18T01:29:29.684Z,17.48
2023-04-18T01:31:56.212Z,17.47
2023-04-18T01:34:22.655Z,17.46
2023-04-18T01:36:49.170Z,17.46
2023-04-18T01:39:15.717Z,17.46
2023-04-18T01:41:43.608Z,17.46
2023-04-18T01:44:10.156Z,17.46
2023-04-18T01:46:36.730Z,17.46
2023-04-18T01:49:03.427Z,17.46
2023-04-18T01:51:29.906Z,17.45
2023-04-18T01:53:56.625Z,17.46
2023-04-18T01:56:23.087Z,17.44
2023-04-18T01:58:50.867Z,17.45
2023-04-18T02:01:17.337Z,17.45
2023-04-18T02:03:43.940Z,17.46
2023-04-18T02:06:10.456Z,17.45
2023-04-18T02:08:37.116Z,17.45
2023-04-18T02:11:03.768Z,17.43
2023-04-18T02:13:30.364Z,17.43
2023-04-18T02:15:58.192Z,17.44
2023-04-18T02:18:25.066Z,17.44
2023-04-18T02:20:51.969Z,17.44
2023-04-18T02:23:19.018Z,17.44
2023-04-18T02:25:45.698Z,17.43
2023-04-18T02:28:12.141Z,17.42
2023-04-18T02:30:38.621Z,17.42
2023-04-18T02:33:06.429Z,17.42
2023-04-18T02:35:32.928Z,17.41
2023-04-18T02:37:59.411Z,17.42
2023-04-18T02:40:25.927Z,17.42
2023-04-18T02:42:52.381Z,17.41
2023-04-18T02:45:19.006Z,17.42
2023-04-18T02:47:54.765Z,17.41
2023-04-18T02:50:24.721Z,17.40
2023-04-18T02:52:51.453Z,17.39
2023-04-18T02:55:18.170Z,17.39
2023-04-18T02:57:44.724Z,17.40
2023-04-18T03:00:12.255Z,17.38
2023-04-18T03:02:38.860Z,17.39
2023-04-18T03:05:05.949Z,17.39
2023-04-18T03:07:33.872Z,17.38
2023-04-18T03:10:00.334Z,17.38
2023-04-18T03:12:26.833Z,17.38
2023-04-18T03:14:53.299Z,17.37
2023-04-18T03:17:19.772Z,17.35
2023-04-18T03:19:46.261Z,17.37
2023-04-18T03:22:13.237Z,17.37
2023-04-18T03:24:41.210Z,17.38
2023-04-18T03:27:07.739Z,17.38
2023-04-18T03:29:34.290Z,17.36
2023-04-18T03:32:00.827Z,17.37
2023-04-18T03:34:27.635Z,17.36
2023-04-18T03:36:54.161Z,17.37
2023-04-18T03:39:20.661Z,17.35
2023-04-18T03:41:48.434Z,17.36
2023-04-18T03:44:15.165Z,17.36
2023-04-18T03:46:42.092Z,17.36
2023-04-18T03:49:08.634Z,17.35
2023-04-18T03:51:44.237Z,17.35
2023-04-18T03:54:10.883Z,17.34
2023-04-18T03:56:37.491Z,17.35
2023-04-18T03:59:05.387Z,17.34
2023-04-18T04:01:32.071Z,17.34
2023-04-18T04:03:58.653Z,17.34
2023-04-18T04:06:25.707Z,17.34
2023-04-18T04:08:52.136Z,17.34
2023-04-18T04:11:18.670Z,17.34
2023-04-18T04:13:45.142Z,17.33
2023-04-18T04:16:13.228Z,17.33
2023-04-18T04:18:39.754Z,17.33
2023-04-18T04:21:06.408Z,17.33
2023-04-18T04:23:32.856Z,17.33
2023-04-18T04:25:59.685Z,17.34
2023-04-18T04:28:26.160Z,17.32
2023-04-18T04:30:53.103Z,17.32
2023-04-18T04:33:22.409Z,17.32
2023-04-18T04:35:49.307Z,17.32
2023-04-18T04:38:15.837Z,17.31
2023-04-18T04:40:42.840Z,17.31
2023-04-18T04:43:09.308Z,17.28
2023-04-18T04:45:35.852Z,17.16
2023-04-18T04:48:02.471Z,17.10
2023-04-18T04:50:30.291Z,17.05
2023-04-18T04:52:56.711Z,17.04
2023-04-18T04:55:23.238Z,17.03
2023-04-18T04:57:49.757Z,17.04
2023-04-18T05:00:16.983Z,17.22
2023-04-18T05:02:43.523Z,17.35
2023-04-18T05:05:10.162Z,17.26
2023-04-18T05:07:37.978Z,17.15
2023-04-18T05:10:04.963Z,17.08
2023-04-18T05:12:31.549Z,17.05
2023-04-18T05:14:58.040Z,17.03
2023-04-18T05:17:24.660Z,17.02
2023-04-18T05:19:51.110Z,17.02
2023-04-18T05:22:17.571Z,17.03
2023-04-18T05:24:45.446Z,17.21
2023-04-18T05:27:11.930Z,17.54
2023-04-18T05:29:38.520Z,17.42
2023-04-18T05:32:05.402Z,17.28
2023-04-18T05:34:31.926Z,17.12
2023-04-18T05:36:58.612Z,17.04
2023-04-18T05:39:25.025Z,16.95
2023-04-18T05:41:52.833Z,16.99
2023-04-18T05:44:19.817Z,16.98
2023-04-18T05:46:46.728Z,16.97
2023-04-18T05:49:13.223Z,16.97
2023-04-18T05:51:39.831Z,16.95
2023-04-18T05:54:06.359Z,17.01
2023-04-18T05:56:32.850Z,17.14
2023-04-18T05:59:00.651Z,17.22
2023-04-18T06:01:27.214Z,17.25
2023-04-18T06:03:54.425Z,17.28
2023-04-18T06:06:21.165Z,17.29
2023-04-18T06:08:47.752Z,17.31
2023-04-18T06:11:14.201Z,17.31
2023-04-18T06:13:41.201Z,17.33
2023-04-18T06:16:09.047Z,17.34
2023-04-18T06:18:35.598Z,17.35
2023-04-18T06:21:02.142Z,17.35
2023-04-18T06:23:28.661Z,17.38
2023-04-18T06:25:57.048Z,17.35
2023-04-18T06:28:23.710Z,17.40
2023-04-18T06:30:50.203Z,17.30
2023-04-18T06:33:18.130Z,17.22
2023-04-18T06:35:44.732Z,17.18
2023-04-18T06:38:11.699Z,17.23
2023-04-18T06:40:38.330Z,17.21
2023-04-18T06:43:04.807Z,17.15
2023-04-18T06:45:31.446Z,17.09
2023-04-18T06:47:58.466Z,17.15
2023-04-18T06:50:27.076Z,17.14
2023-04-18T06:52:53.534Z,17.12
2023-04-18T06:55:20.060Z,17.13
2023-04-18T06:57:46.567Z,17.13
2023-04-18T07:00:13.942Z,17.13
2023-04-18T07:02:40.741Z,17.18
2023-04-18T07:05:08.726Z,17.18
2023-04-18T07:07:36.496Z,17.19
2023-04-18T07:10:03.162Z,17.21
2023-04-18T07:12:29.720Z,17.17
2023-04-18T07:14:56.257Z,17.18
2023-04-18T07:17:22.802Z,17.21
2023-04-18T07:19:49.428Z,17.22
2023-04-18T07:22:15.908Z,17.22
2023-04-18T07:24:43.673Z,17.25
2023-04-18T07:27:10.111Z,17.25
2023-04-18T07:29:36.556Z,17.24
2023-04-18T07:32:03.048Z,17.27
2023-04-18T07:34:29.867Z,17.26
2023-04-18T07:36:56.899Z,17.30
2023-04-18T07:39:23.337Z,17.28
2023-04-18T07:41:51.145Z,17.27
2023-04-18T07:44:17.766Z,17.32
2023-04-18T07:46:44.324Z,17.31
2023-04-18T07:49:10.933Z,17.30
2023-04-18T07:51:37.591Z,17.30
2023-04-18T07:54:04.287Z,17.35
2023-04-18T07:56:30.740Z,17.37
2023-04-18T07:58:58.517Z,17.39
2023-04-18T08:01:25.005Z,17.39
2023-04-18T08:03:51.716Z,17.38
2023-04-18T08:06:18.313Z,17.36
2023-04-18T08:08:44.920Z,17.36
2023-04-18T08:11:11.402Z,17.41
2023-04-18T08:13:38.127Z,17.42
2023-04-18T08:16:06.445Z,17.44
2023-04-18T08:18:32.964Z,17.44
2023-04-18T08:20:59.483Z,17.49
2023-04-18T08:23:25.968Z,17.55
2023-04-18T08:25:52.476Z,17.56
2023-04-18T08:28:18.970Z,17.53
2023-04-18T08:30:45.502Z,17.59
2023-04-18T08:33:13.286Z,17.68
2023-04-18T08:35:39.775Z,17.68
2023-04-18T08:38:06.262Z,17.67
2023-04-18T08:40:32.787Z,17.65
2023-04-18T08:43:01.901Z,17.60
2023-04-18T08:45:28.579Z,17.57
2023-04-18T08:47:55.408Z,17.55
2023-04-18T08:50:23.244Z,17.54
2023-04-18T08:52:51.216Z,17.54
2023-04-18T08:55:17.733Z,17.62
2023-04-18T08:57:44.660Z,17.68
2023-04-18T09:00:12.073Z,17.71
2023-04-18T09:02:40.397Z,17.72
2023-04-18T09:05:11.625Z,17.87
2023-04-18T09:07:39.473Z,18.01
2023-04-18T09:10:06.636Z,18.10
2023-04-18T09:12:40.245Z,18.12
2023-04-18T09:15:11.314Z,18.16
2023-04-18T09:17:39.630Z,18.23
2023-04-18T09:20:07.550Z,18.18
2023-04-18T09:22:47.744Z,18.29
2023-04-18T09:25:24.895Z,18.28
2023-04-18T09:27:51.618Z,18.25
2023-04-18T09:30:30.069Z,18.27
2023-04-18T09:32:58.283Z,18.27
2023-04-18T09:35:25.972Z,18.28
2023-04-18T09:37:53.845Z,18.30
2023-04-18T09:40:21.272Z,18.29
2023-04-18T09:42:47.950Z,18.31
2023-04-18T09:45:14.435Z,18.28
2023-04-18T09:47:40.943Z,18.29
2023-04-18T09:50:09.623Z,18.28
2023-04-18T09:52:38.572Z,18.34
2023-04-18T09:55:09.183Z,18.35
2023-04-18T09:57:37.735Z,18.33
2023-04-18T10:00:08.136Z,18.36
2023-04-18T10:02:46.887Z,18.40
2023-04-18T10:05:14.424Z,18.41
2023-04-18T10:07:43.781Z,18.41
2023-04-18T10:10:11.657Z,18.45
2023-04-18T10:12:38.992Z,18.41
2023-04-18T10:15:07.152Z,18.43
2023-04-18T10:17:56.023Z,18.42
2023-04-18T10:20:28.585Z,18.45
2023-04-18T10:22:55.975Z,18.45
2023-04-18T10:25:42.320Z,18.46
2023-04-18T10:28:10.146Z,18.45
2023-04-18T10:30:56.399Z,18.45
2023-04-18T10:33:31.787Z,18.42
2023-04-18T10:36:01.091Z,18.40
2023-04-18T10:38:27.999Z,18.36
2023-04-18T10:41:13.726Z,18.45
2023-04-18T10:44:06.278Z,18.57
2023-04-18T10:46:34.356Z,18.57
2023-04-18T10:49:14.448Z,18.53
2023-04-18T10:51:41.567Z,18.75
2023-04-18T10:54:10.616Z,18.59
2023-04-18T10:56:37.369Z,18.56
2023-04-18T10:59:03.802Z,18.45
2023-04-18T11:01:32.753Z,18.35
2023-04-18T11:04:01.179Z,18.25
2023-04-18T11:06:28.335Z,18.25
2023-04-18T11:09:09.365Z,18.22
2023-04-18T11:11:35.802Z,18.16
2023-04-18T11:14:02.358Z,18.19
2023-04-18T11:16:30.518Z,18.19
2023-04-18T11:18:57.491Z,18.11
2023-04-18T11:21:29.141Z,18.09
2023-04-18T11:23:57.828Z,18.07
2023-04-18T11:26:24.862Z,18.10
2023-04-18T11:28:52.030Z,18.11
2023-04-18T11:31:18.548Z,18.06
2023-04-18T11:33:46.519Z,18.08
2023-04-18T11:36:13.302Z,18.14
2023-04-18T11:38:41.232Z,18.19
2023-04-18T11:41:12.291Z,18.17
2023-04-18T11:43:42.989Z,18.13
2023-04-18T11:46:09.539Z,18.20
2023-04-18T11:48:36.587Z,18.20
2023-04-18T11:51:03.338Z,18.27
2023-04-18T11:53:33.653Z,18.16
2023-04-18T11:56:02.042Z,18.13
2023-04-18T11:58:32.728Z,18.19
2023-04-18T12:00:59.482Z,18.23
2023-04-18T12:03:26.229Z,18.21
2023-04-18T12:05:59.088Z,18.22
2023-04-18T12:08:25.786Z,18.33
2023-04-18T12:10:54.557Z,18.40
2023-04-18T12:13:25.992Z,18.44
2023-04-18T12:15:53.356Z,18.45
2023-04-18T12:18:20.036Z,18.44
2023-04-18T12:20:47.948Z,18.47
2023-04-18T12:23:31.965Z,18.52
2023-04-18T12:25:59.213Z,18.58
2023-04-18T12:28:27.586Z,18.56
2023-04-18T12:30:54.029Z,18.57
2023-04-18T12:33:20.570Z,18.59
2023-04-18T12:35:49.391Z,18.60
2023-04-18T12:38:20.210Z,18.63
2023-04-18T12:40:46.683Z,18.65
2023-04-18T12:43:13.200Z,18.69
2023-04-18T12:45:41.111Z,18.64
2023-04-18T12:48:07.662Z,18.58
2023-04-18T12:50:34.506Z,18.56
2023-04-18T12:53:01.593Z,18.59
2023-04-18T12:55:29.122Z,18.60
2023-04-18T12:57:56.168Z,18.60
2023-04-18T13:00:24.044Z,18.67
2023-04-18T13:02:52.909Z,18.65
2023-04-18T13:05:22.281Z,18.63
2023-04-18T13:07:49.515Z,18.68
2023-04-18T13:10:18.086Z,18.65
2023-04-18T13:12:45.426Z,18.60
2023-04-18T13:15:12.667Z,18.68
2023-04-18T13:17:39.863Z,18.67
2023-04-18T13:20:09.910Z,18.70
2023-04-18T13:22:36.794Z,18.69
2023-04-18T13:25:03.354Z,18.61
2023-04-18T13:27:29.943Z,18.58
2023-04-18T13:29:56.486Z,18.64
2023-04-18T13:32:23.297Z,18.66
2023-04-18T13:34:49.816Z,18.67
2023-04-18T13:37:17.652Z,18.70
2023-04-18T13:39:44.407Z,18.67
2023-04-18T13:42:10.870Z,18.73
2023-04-18T13:44:38.260Z,18.80
2023-04-18T13:47:06.172Z,18.75
2023-04-18T13:49:33.473Z,18.70
2023-04-18T13:52:00.040Z,18.67
2023-04-18T13:54:29.044Z,18.67
2023-04-18T13:56:56.197Z,18.67
2023-04-18T13:59:22.948Z,18.68
2023-04-18T14:01:49.709Z,18.62
2023-04-18T14:04:16.777Z,18.67
2023-04-18T14:06:43.668Z,18.70
2023-04-18T14:09:10.128Z,18.71
2023-04-18T14:11:37.912Z,18.73
2023-04-18T14:14:04.379Z,18.66
2023-04-18T14:16:32.420Z,18.63
2023-04-18T14:19:00.769Z,18.72
2023-04-18T14:21:27.818Z,18.71
2023-04-18T14:23:54.692Z,18.87
2023-04-18T14:26:21.430Z,18.97
2023-04-18T14:28:49.341Z,18.87
2023-04-18T14:31:15.914Z,18.81
2023-04-18T14:33:42.773Z,19.00
2023-04-18T14:36:09.769Z,19.44
2023-04-18T14:38:36.572Z,19.50
2023-04-18T14:41:04.185Z,19.59
2023-04-18T14:43:30.916Z,19.66
2023-04-18T14:45:59.728Z,19.71
2023-04-18T14:48:26.443Z,19.79
2023-04-18T14:50:56.492Z,19.79
2023-04-18T14:53:23.130Z,19.86
2023-04-18T14:55:49.734Z,19.88
2023-04-18T14:58:16.238Z,19.73
2023-04-18T15:00:42.743Z,19.81
2023-04-18T15:03:11.379Z,19.89
2023-04-18T15:05:38.126Z,19.88
2023-04-18T15:08:04.796Z,19.95
2023-04-18T15:10:31.225Z,19.93
2023-04-18T15:12:57.702Z,19.93
2023-04-18T15:15:24.230Z,19.89
2023-04-18T15:17:50.698Z,19.94
2023-04-18T15:20:18.690Z,19.97
2023-04-18T15:22:45.162Z,20.07
2023-04-18T15:25:11.649Z,20.05
2023-04-18T15:27:38.131Z,19.95
2023-04-18T15:30:05.527Z,20.01
2023-04-18T15:32:32.033Z,20.09
2023-04-18T15:34:58.626Z,20.20
2023-04-18T15:37:26.456Z,20.24
2023-04-18T15:39:53.027Z,20.12
2023-04-18T15:42:19.506Z,20.00
2023-04-18T15:44:45.944Z,19.91
2023-04-18T15:47:12.401Z,19.91
2023-04-18T15:49:38.836Z,19.95
2023-04-18T15:52:05.290Z,20.00
2023-04-18T15:54:33.083Z,19.99
2023-04-18T15:56:59.562Z,19.89
2023-04-18T15:59:26.044Z,19.81
2023-04-18T16:01:52.687Z,19.84
2023-04-18T16:04:19.299Z,19.83
2023-04-18T16:06:45.889Z,19.85
2023-04-18T16:09:12.391Z,19.82
2023-04-18T16:11:40.262Z,19.82
2023-04-18T16:14:06.797Z,19.86
2023-04-18T16:16:33.282Z,19.82
2023-04-18T16:18:59.884Z,19.68
2023-04-18T16:21:27.506Z,19.70
2023-04-18T16:23:54.006Z,19.70
2023-04-18T16:26:20.436Z,19.77
2023-04-18T16:28:48.276Z,19.76
2023-04-18T16:31:14.946Z,19.81
2023-04-18T16:33:41.518Z,19.87
2023-04-18T16:36:09.090Z,20.00
2023-04-18T16:38:35.703Z,20.23
2023-04-18T16:41:02.227Z,20.46
2023-04-18T16:43:28.810Z,20.68
2023-04-18T16:45:57.376Z,20.59
2023-04-18T16:48:24.166Z,20.52
2023-04-18T16:50:50.640Z,20.42
2023-04-18T16:53:17.216Z,20.21
2023-04-18T16:55:43.731Z,20.58
2023-04-18T16:58:10.237Z,20.70
2023-04-18T17:00:38.373Z,20.33
2023-04-18T17:03:06.689Z,20.11
2023-04-18T17:05:33.332Z,20.07
2023-04-18T17:08:00.100Z,20.02
2023-04-18T17:10:28.747Z,19.98
2023-04-18T17:12:55.241Z,19.94
2023-04-18T17:15:21.935Z,19.91
2023-04-18T17:17:48.478Z,19.90
2023-04-18T17:20:16.740Z,19.86
2023-04-18T17:22:43.294Z,19.77
2023-04-18T17:25:10.155Z,19.68
2023-04-18T17:27:36.617Z,19.71
2023-04-18T17:30:03.296Z,19.71
2023-04-18T17:32:29.792Z,19.74
2023-04-18T17:34:56.261Z,19.75
2023-04-18T17:37:24.038Z,19.76
2023-04-18T17:39:50.511Z,19.75
2023-04-18T17:42:18.949Z,19.74
2023-04-18T17:44:45.427Z,19.75
2023-04-18T17:47:11.977Z,19.75
2023-04-18T17:49:38.459Z,19.74
2023-04-18T17:52:05.201Z,19.77
2023-04-18T17:54:32.938Z,19.69
2023-04-18T17:56:59.403Z,19.65
2023-04-18T17:59:25.827Z,19.66
2023-04-18T18:01:52.444Z,19.68
2023-04-18T18:04:19.269Z,19.71
2023-04-18T18:06:54.210Z,19.74
2023-04-18T18:09:20.697Z,19.73
2023-04-18T18:11:48.510Z,19.75
2023-04-18T18:14:15.369Z,19.76
2023-04-18T18:16:41.926Z,19.74
2023-04-18T18:19:08.518Z,19.74
2023-04-18T18:21:35.134Z,19.75
2023-04-18T18:24:01.747Z,19.75
2023-04-18T18:26:28.370Z,19.66
2023-04-18T18:28:56.193Z,19.55
2023-04-18T18:31:22.704Z,19.61
2023-04-18T18:33:49.213Z,19.59
2023-04-18T18:36:15.696Z,19.62
2023-04-18T18:38:42.190Z,19.59
2023-04-18T18:41:08.985Z,19.58
2023-04-18T18:43:35.427Z,19.57
2023-04-18T18:46:03.235Z,19.54
2023-04-18T18:48:29.784Z,19.54
2023-04-18T18:50:56.332Z,19.53
2023-04-18T18:53:22.801Z,19.52
2023-04-18T18:55:49.339Z,19.48
2023-04-18T18:58:15.848Z,19.35
2023-04-18T19:00:42.268Z,19.36
2023-04-18T19:03:10.195Z,19.38
2023-04-18T19:05:36.695Z,19.40
2023-04-18T19:08:03.395Z,19.42
2023-04-18T19:10:29.976Z,19.41
2023-04-18T19:12:56.493Z,19.42
2023-04-18T19:15:23.404Z,19.41
2023-04-18T19:17:50.088Z,19.41
2023-04-18T19:20:17.937Z,19.41
2023-04-18T19:22:44.525Z,19.40
2023-04-18T19:25:11.066Z,19.41
2023-04-18T19:27:37.558Z,19.34
2023-04-18T19:30:04.505Z,19.25
2023-04-18T19:32:31.103Z,19.29
2023-04-18T19:34:57.627Z,19.31
2023-04-18T19:37:25.411Z,19.32
2023-04-18T19:39:51.868Z,19.34
2023-04-18T19:42:18.455Z,19.35
2023-04-18T19:44:44.901Z,19.35
2023-04-18T19:47:11.376Z,19.33
2023-04-18T19:49:37.933Z,19.32
2023-04-18T19:52:04.682Z,19.34
2023-04-18T19:54:32.566Z,19.34
2023-04-18T19:56:59.054Z,19.35
2023-04-18T19:59:25.611Z,19.25
2023-04-18T20:01:52.083Z,19.21
2023-04-18T20:04:18.617Z,19.27
2023-04-18T20:06:45.200Z,19.27
2023-04-18T20:09:11.667Z,19.28
2023-04-18T20:11:39.368Z,19.29
2023-04-18T20:14:05.839Z,19.33
2023-04-18T20:16:32.411Z,19.32
2023-04-18T20:18:58.869Z,19.33
2023-04-18T20:21:25.449Z,19.31
2023-04-18T20:23:51.982Z,19.30
2023-04-18T20:26:18.531Z,19.30
2023-04-18T20:28:46.381Z,19.28
2023-04-18T20:31:12.942Z,19.17
2023-04-18T20:33:39.422Z,19.21
2023-04-18T20:36:06.018Z,19.26
2023-04-18T20:38:32.725Z,19.29
2023-04-18T20:40:59.190Z,19.30
2023-04-18T20:43:25.683Z,19.29
2023-04-18T20:45:53.443Z,19.33
2023-04-18T20:48:20.139Z,19.30
2023-04-18T20:50:46.761Z,19.29
2023-04-18T20:53:13.305Z,19.30
2023-04-18T20:55:39.793Z,19.30
2023-04-18T20:58:06.378Z,19.31
2023-04-18T21:00:32.853Z,19.35
2023-04-18T21:03:00.847Z,19.23
2023-04-18T21:05:27.566Z,19.22
2023-04-18T21:07:54.014Z,19.26
2023-04-18T21:10:20.541Z,19.28
2023-04-18T21:12:47.023Z,19.29
2023-04-18T21:15:13.515Z,19.29
2023-04-18T21:17:40.026Z,19.31
2023-04-18T21:20:08.846Z,19.32
2023-04-18T21:22:35.370Z,19.33
2023-04-18T21:25:02.723Z,19.33
2023-04-18T21:27:29.677Z,19.33
2023-04-18T21:29:56.288Z,19.34
2023-04-18T21:32:22.882Z,19.28
2023-04-18T21:34:49.402Z,19.23
2023-04-18T21:37:17.265Z,19.24
2023-04-18T21:39:43.898Z,19.26
2023-04-18T21:42:10.499Z,19.30
2023-04-18T21:44:36.971Z,19.31
2023-04-18T21:47:03.460Z,19.30
2023-04-18T21:49:29.952Z,19.31
2023-04-18T21:51:56.436Z,19.33
2023-04-18T21:54:24.200Z,19.33
2023-04-18T21:56:50.738Z,19.32
2023-04-18T21:59:17.227Z,19.34
2023-04-18T22:01:43.804Z,19.34
2023-04-18T22:04:10.390Z,19.29
2023-04-18T22:06:37.043Z,19.22
2023-04-18T22:09:03.600Z,19.24
2023-04-18T22:11:31.417Z,19.26
2023-04-18T22:13:57.866Z,19.29
2023-04-18T22:16:24.441Z,19.31
2023-04-18T22:18:51.092Z,19.30
2023-04-18T22:21:17.618Z,19.33
2023-04-18T22:23:44.065Z,19.31
2023-04-18T22:26:10.571Z,19.33
2023-04-18T22:28:38.502Z,19.32
2023-04-18T22:31:05.230Z,19.34
2023-04-18T22:33:31.888Z,19.35
2023-04-18T22:35:58.306Z,19.33
2023-04-18T22:38:25.025Z,19.21
2023-04-18T22:40:51.550Z,19.22
2023-04-18T22:43:18.012Z,19.24
2023-04-18T22:45:46.533Z,19.29
2023-04-18T22:48:13.091Z,19.30
2023-04-18T22:50:39.578Z,19.31
2023-04-18T22:53:06.049Z,19.33
2023-04-18T22:55:32.623Z,19.36
2023-04-18T22:57:59.107Z,19.32
2023-04-18T23:00:25.667Z,19.32
2023-04-18T23:02:53.598Z,19.33
2023-04-18T23:05:20.349Z,19.35
2023-04-18T23:07:46.874Z,19.35
2023-04-18T23:10:13.525Z,19.34
2023-04-18T23:12:40.034Z,19.21
2023-04-18T23:15:07.348Z,19.24
2023-04-18T23:17:34.023Z,19.27
2023-04-18T23:20:01.864Z,19.29
2023-04-18T23:22:28.890Z,19.30
2023-04-18T23:24:55.377Z,19.30
2023-04-18T23:27:21.840Z,19.31
2023-04-18T23:29:48.300Z,19.32
2023-04-18T23:32:14.890Z,19.34
2023-04-18T23:34:41.370Z,19.36
2023-04-18T23:37:09.295Z,19.34
2023-04-18T23:39:35.744Z,19.34
2023-04-18T23:42:02.388Z,19.36
2023-04-18T23:44:28.840Z,19.24
2023-04-18T23:46:55.369Z,19.22
2023-04-18T23:49:21.879Z,19.27
2023-04-18T23:51:48.388Z,19.28
2023-04-18T23:54:16.309Z,19.29
2023-04-18T23:56:42.857Z,19.31
2023-04-18T23:59:09.318Z,19.31
